Time;durP1;ratioP1;P1;durP2;ratioP2;P2;SDS_P1;SDS_P2;PMS_P1;PMS_P2;Temp;Humidity;BMP_temperature;BMP_pressure;BME280_temperature;BME280_humidity;BME280_pressure;Samples;Min_cycle;Max_cycle;Signal;HPM_P1;HPM_P2
2023/01/04 00:01:03;;;;;;;10.52;4.68;;;9.10;99.90;;;;;;5090907;28;20477;-72
2023/01/04 00:03:30;;;;;;;12.98;5.03;;;9.00;99.90;;;;;;5091342;28;20052;-74
2023/01/04 00:05:57;;;;;;;15.38;4.70;;;7.60;99.90;;;;;;5091095;28;20052;-72
2023/01/04 00:08:23;;;;;;;10.68;4.97;;;8.90;99.90;;;;;;5092363;28;20164;-73
2023/01/04 00:10:49;;;;;;;11.63;5.18;;;9.30;99.90;;;;;;5092341;28;20384;-73
2023/01/04 00:13:15;;;;;;;17.05;5.40;;;7.90;99.90;;;;;;5092308;28;20452;-74
2023/01/04 00:15:40;;;;;;;14.30;5.85;;;9.20;99.90;;;;;;5074192;28;20048;-73
2023/01/04 00:18:06;;;;;;;13.88;5.65;;;9.20;99.90;;;;;;5092151;28;20476;-71
2023/01/04 00:20:32;;;;;;;15.00;5.40;;;9.30;99.90;;;;;;5090948;28;20131;-71
2023/01/04 00:22:58;;;;;;;11.98;5.90;;;9.50;99.90;;;;;;5091191;28;20075;-72
2023/01/04 00:25:24;;;;;;;15.07;6.20;;;7.60;99.90;;;;;;5091824;28;20472;-72
2023/01/04 00:27:50;;;;;;;12.77;6.13;;;7.80;99.90;;;;;;5091788;28;20101;-71
2023/01/04 00:30:17;;;;;;;13.70;6.13;;;7.40;99.90;;;;;;5091787;28;20093;-70
2023/01/04 00:32:44;;;;;;;13.43;5.80;;;8.70;99.90;;;;;;5092113;28;20097;-71
2023/01/04 00:35:10;;;;;;;16.17;6.65;;;7.40;99.90;;;;;;5091990;28;20104;-71
2023/01/04 00:37:36;;;;;;;12.73;6.20;;;7.30;99.90;;;;;;5090926;28;20476;-70
2023/01/04 00:40:02;;;;;;;16.95;6.35;;;9.30;99.90;;;;;;5091659;28;20040;-71
2023/01/04 00:42:28;;;;;;;10.82;6.63;;;7.80;99.90;;;;;;5091733;28;20496;-69
2023/01/04 00:44:53;;;;;;;13.98;5.95;;;8.40;99.90;;;;;;5091667;28;20043;-70
2023/01/04 00:47:19;;;;;;;13.57;6.35;;;7.10;99.90;;;;;;5090625;28;20101;-70
2023/01/04 00:49:45;;;;;;;13.32;6.05;;;7.30;99.90;;;;;;5090529;28;20055;-68
2023/01/04 00:52:10;;;;;;;11.43;6.03;;;9.30;99.90;;;;;;5090580;28;20048;-71
2023/01/04 00:54:36;;;;;;;12.43;6.13;;;9.50;99.90;;;;;;5090766;28;20044;-70
2023/01/04 00:57:04;;;;;;;16.13;6.53;;;9.50;99.90;;;;;;5090491;28;20126;-71
2023/01/04 00:59:30;;;;;;;10.02;6.30;;;6.10;99.90;;;;;;5091475;28;20134;-71
2023/01/04 01:01:56;;;;;;;9.25;5.68;;;8.10;99.90;;;;;;5073892;28;20138;-70
2023/01/04 01:04:22;;;;;;;13.48;5.55;;;8.20;99.90;;;;;;5091780;28;20131;-70
2023/01/04 01:06:49;;;;;;;11.13;5.80;;;8.50;99.90;;;;;;5091817;28;20040;-72
2023/01/04 01:09:15;;;;;;;10.90;5.60;;;8.40;99.90;;;;;;5090697;28;20048;-70
2023/01/04 01:11:41;;;;;;;;;;;9.30;99.90;;;;;;5090818;28;20066;-70
2023/01/04 01:14:17;;;;;;;10.38;5.63;;;7.50;99.90;;;;;;5091483;28;20018;-70
2023/01/04 01:16:42;;;;;;;11.75;5.30;;;7.60;99.90;;;;;;5090702;28;20090;-71
2023/01/04 01:19:08;;;;;;;13.63;5.45;;;7.60;99.90;;;;;;5091681;28;20488;-68
2023/01/04 01:21:34;;;;;;;11.60;5.45;;;8.40;99.90;;;;;;5091617;28;20524;-70
2023/01/04 01:24:00;;;;;;;7.10;5.18;;;7.80;99.90;;;;;;5091624;28;20052;-69
2023/01/04 01:26:25;;;;;;;10.90;5.20;;;9.60;99.90;;;;;;5091309;28;20044;-70
2023/01/04 01:28:52;;;;;;;13.48;5.97;;;7.60;99.90;;;;;;5090759;28;20085;-72
2023/01/04 01:31:19;;;;;;;;;;;9.30;99.90;;;;;;5090795;28;20190;-72
2023/01/04 01:33:47;;;;;;;11.45;5.63;;;9.60;99.90;;;;;;5091477;28;19931;-71
2023/01/04 01:36:14;;;;;;;10.90;5.03;;;7.20;99.90;;;;;;5091513;28;20047;-70
2023/01/04 01:38:40;;;;;;;8.85;5.35;;;9.40;99.90;;;;;;5091437;28;20054;-70
2023/01/04 01:41:07;;;;;;;9.80;4.75;;;9.60;99.90;;;;;;5090363;28;20048;-70
2023/01/04 01:43:55;;;;;;;10.35;5.43;;;9.30;99.90;;;;;;5090332;28;20052;-69
2023/01/04 01:46:30;;;;;;;13.50;5.05;;;9.70;99.90;;;;;;5091115;28;20496;-71
2023/01/04 01:49:01;;;;;;;10.85;5.53;;;9.20;99.90;;;;;;5090020;28;20044;-70
2023/01/04 01:51:28;;;;;;;10.20;4.90;;;7.90;99.90;;;;;;5091516;28;20075;-70
2023/01/04 01:54:00;;;;;;;11.40;5.63;;;7.30;99.90;;;;;;5094923;28;20130;-70
2023/01/04 01:56:29;;;;;;;9.73;5.15;;;9.10;99.90;;;;;;5094692;28;20048;-71
2023/01/04 01:58:57;;;;;;;9.27;4.43;;;7.60;99.90;;;;;;5094798;28;20084;-70
2023/01/04 02:01:22;;;;;;;10.57;4.60;;;7.70;99.90;;;;;;5093653;28;20052;-70
2023/01/04 02:03:48;;;;;;;9.85;4.20;;;9.60;99.90;;;;;;5093717;28;20044;-70
2023/01/04 02:06:21;;;;;;;10.70;5.13;;;7.10;99.90;;;;;;5094678;28;20176;-69
2023/01/04 02:08:48;;;;;;;9.82;4.63;;;7.60;99.90;;;;;;5093444;28;20090;-69
2023/01/04 02:11:14;;;;;;;12.02;4.32;;;9.50;99.90;;;;;;5094307;28;20101;-69
2023/01/04 02:16:45;;;;;;;7.47;4.00;;;7.10;99.90;;;;;;5074063;28;20070;-68
2023/01/04 02:19:41;;;;;;;6.88;4.20;;;10.00;99.90;;;;;;5094477;28;20123;-68
2023/01/04 02:22:35;;;;;;;8.25;4.03;;;6.90;99.90;;;;;;5094507;28;20506;-68
2023/01/04 02:25:52;;;;;;;6.05;3.80;;;10.30;99.90;;;;;;5093782;28;20504;-68
2023/01/04 02:29:09;;;;;;;6.15;3.70;;;6.50;99.90;;;;;;5081371;28;20333;-67
2023/01/04 02:31:56;;;;;;;7.63;3.60;;;7.50;99.90;;;;;;5093173;28;20063;-68
2023/01/04 02:34:53;;;;;;;7.93;3.83;;;6.60;99.90;;;;;;5094287;28;20055;-68
2023/01/04 02:37:25;;;;;;;;;;;8.70;99.90;;;;;;5085498;28;20389;-69
2023/01/04 02:40:06;;;;;;;9.82;3.67;;;11.40;99.90;;;;;;5092810;28;20012;-68
2023/01/04 02:45:57;;;;;;;6.15;2.88;;;10.10;99.90;;;;;;5093929;28;20129;-68
2023/01/04 02:51:30;;;;;;;4.68;2.95;;;8.00;99.90;;;;;;5092642;28;20068;-68
2023/01/04 02:53:59;;;;;;;6.05;2.70;;;7.30;99.90;;;;;;5093620;28;20233;-66
2023/01/04 02:56:41;;;;;;;6.18;3.05;;;7.10;99.90;;;;;;5092518;28;20131;-66
2023/01/04 02:59:09;;;;;;;10.85;3.40;;;10.70;99.90;;;;;;5093759;28;20408;-67
2023/01/04 03:07:34;;;;;;;5.60;2.65;;;8.20;99.90;;;;;;5093601;28;20142;-67
2023/01/04 03:10:08;;;;;;;5.65;2.70;;;8.80;99.90;;;;;;5093284;28;20040;-67
2023/01/04 03:12:42;;;;;;;8.13;2.95;;;8.90;99.90;;;;;;5093470;28;20048;-68
2023/01/04 03:15:08;;;;;;;7.70;2.83;;;7.50;99.90;;;;;;5093402;28;20043;-67
2023/01/04 03:17:43;;;;;;;4.97;2.72;;;7.70;99.90;;;;;;5093405;28;20059;-66
2023/01/04 03:20:11;;;;;;;7.38;2.97;;;9.60;99.90;;;;;;5093312;28;20040;-66
2023/01/04 03:37:19;;;;;;;6.78;3.75;;;7.90;99.90;;;;;;5093098;28;20139;-67
2023/01/04 03:48:55;;;;;;;5.72;4.40;;;8.30;99.90;;;;;;5092388;28;20793;-66
2023/01/04 03:51:26;;;;;;;8.20;4.50;;;7.80;99.90;;;;;;5091413;28;20415;-66
2023/01/04 03:53:58;;;;;;;6.53;4.90;;;10.60;99.90;;;;;;5092711;28;20069;-66
2023/01/04 03:56:27;;;;;;;7.03;5.20;;;10.70;99.90;;;;;;5092624;28;20044;-66
2023/01/04 03:58:56;;;;;;;8.05;6.15;;;7.90;99.90;;;;;;5092547;28;20456;-66
2023/01/04 04:01:24;;;;;;;9.75;6.30;;;7.40;99.90;;;;;;5092536;28;20127;-66
2023/01/04 04:09:19;;;;;;;8.95;7.35;;;7.30;99.90;;;;;;5092335;28;20071;-66
2023/01/04 04:11:45;;;;;;;10.52;7.78;;;6.80;99.90;;;;;;5092384;28;20043;-66
2023/01/04 04:14:11;;;;;;;9.68;7.60;;;11.60;99.90;;;;;;5091942;28;20052;-66
2023/01/04 04:16:37;;;;;;;13.45;8.15;;;12.50;99.90;;;;;;5091078;28;20063;-67
2023/01/04 04:19:03;;;;;;;14.75;9.70;;;8.50;99.90;;;;;;5092274;28;20044;-66
2023/01/04 04:21:29;;;;;;;14.88;10.27;;;12.40;99.90;;;;;;5090873;28;20487;-66
2023/01/04 04:23:55;;;;;;;14.88;10.43;;;7.00;99.90;;;;;;5092130;28;20052;-66
2023/01/04 04:26:22;;;;;;;;;;;7.20;99.90;;;;;;5092764;28;20079;-66
2023/01/04 04:28:48;;;;;;;18.13;11.90;;;7.20;99.90;;;;;;5092013;28;19950;-67
2023/01/04 04:31:14;;;;;;;19.17;11.23;;;7.40;99.90;;;;;;5092092;28;20059;-66
2023/01/04 04:33:40;;;;;;;17.67;11.18;;;7.10;99.90;;;;;;5092096;28;20052;-66
2023/01/04 04:36:07;;;;;;;21.75;10.63;;;8.60;99.90;;;;;;5091808;28;20048;-66
2023/01/04 04:38:33;;;;;;;18.00;10.98;;;10.10;99.90;;;;;;5092029;28;20122;-66
2023/01/04 04:43:43;;;;;;;15.32;9.57;;;12.40;99.90;;;;;;5092076;28;20048;-67
2023/01/04 04:46:09;;;;;;;18.08;9.82;;;12.60;99.90;;;;;;5091972;28;20058;-67
2023/01/04 04:48:34;;;;;;;17.30;9.27;;;7.30;99.90;;;;;;5090579;28;20480;-67
2023/01/04 04:51:00;;;;;;;14.35;9.80;;;9.10;99.90;;;;;;5090684;28;20048;-66
2023/01/04 04:53:26;;;;;;;17.45;8.75;;;7.30;99.90;;;;;;5074138;28;20048;-65
2023/01/04 04:55:53;;;;;;;15.27;8.57;;;11.80;99.90;;;;;;5092050;28;20044;-66
2023/01/04 04:58:19;;;;;;;14.93;7.82;;;11.60;99.90;;;;;;5092149;28;20237;-65
2023/01/04 05:00:45;;;;;;;17.15;7.18;;;10.80;99.90;;;;;;5092430;28;20058;-65
2023/01/04 05:03:11;;;;;;;11.70;5.75;;;7.60;99.90;;;;;;5091917;28;20044;-65
2023/01/04 05:05:37;;;;;;;14.35;5.90;;;7.50;99.90;;;;;;5091561;28;20044;-66
2023/01/04 05:08:02;;;;;;;14.82;5.22;;;8.10;99.90;;;;;;5091802;28;20476;-66
2023/01/04 05:10:28;;;;;;;9.07;4.65;;;11.50;99.90;;;;;;5090809;28;20126;-66
2023/01/04 05:13:00;;;;;;;8.43;4.07;;;10.50;99.90;;;;;;5091578;28;20059;-67
2023/01/04 05:15:33;;;;;;;14.60;4.38;;;7.60;99.90;;;;;;5091748;28;20047;-67
2023/01/04 05:17:59;;;;;;;11.18;3.80;;;13.00;99.90;;;;;;5091696;28;20047;-66
2023/01/04 05:20:25;;;;;;;9.48;4.28;;;13.30;99.90;;;;;;5091268;28;20056;-68
2023/01/04 05:22:50;;;;;;;;;;;12.30;99.90;;;;;;5090956;28;20135;-66
2023/01/04 05:25:17;;;;;;;9.38;3.47;;;8.10;99.90;;;;;;5091714;28;20011;-67
2023/01/04 05:27:43;;;;;;;6.35;3.28;;;12.30;99.90;;;;;;5093666;28;20105;-67
2023/01/04 05:32:55;;;;;;;8.02;2.83;;;13.00;99.90;;;;;;5094435;28;20451;-67
2023/01/04 05:35:21;;;;;;;5.50;1.92;;;10.60;99.90;;;;;;5094089;28;20109;-68
2023/01/04 05:37:46;;;;;;;5.57;2.10;;;12.60;99.90;;;;;;5094293;28;20127;-68
2023/01/04 05:40:12;;;;;;;5.22;2.72;;;8.50;99.90;;;;;;5094294;28;20101;-68
2023/01/04 05:42:38;;;;;;;6.25;3.70;;;13.50;99.90;;;;;;5095320;28;20050;-66
2023/01/04 05:45:05;;;;;;;12.18;4.28;;;8.30;99.90;;;;;;5095266;28;20447;-67
2023/01/04 05:47:30;;;;;;;6.90;3.92;;;14.30;99.90;;;;;;5094798;28;20040;-65
2023/01/04 05:49:56;;;;;;;11.20;4.22;;;8.30;99.90;;;;;;5094817;28;20047;-66
2023/01/04 05:52:22;;;;;;;8.05;4.68;;;13.20;99.90;;;;;;5095146;28;20408;-67
2023/01/04 05:54:47;;;;;;;7.90;4.47;;;12.00;99.90;;;;;;5093697;28;20123;-66
2023/01/04 05:57:14;;;;;;;8.80;4.68;;;11.90;99.90;;;;;;5093977;28;20044;-68
2023/01/04 05:59:39;;;;;;;8.68;4.50;;;8.00;99.90;;;;;;5095008;28;20048;-67
2023/01/04 06:02:05;;;;;;;7.10;4.40;;;8.70;99.90;;;;;;5093872;28;20048;-68
2023/01/04 06:04:31;;;;;;;;;;;12.50;99.90;;;;;;5093818;28;20048;-67
2023/01/04 06:06:57;;;;;;;7.30;4.97;;;8.30;99.90;;;;;;5094843;28;19920;-67
2023/01/04 06:09:26;;;;;;;8.40;5.35;;;12.50;99.90;;;;;;5094752;28;20048;-67
2023/01/04 06:11:53;;;;;;;9.75;5.07;;;11.90;99.90;;;;;;5094717;28;20048;-66
2023/01/04 06:14:19;;;;;;;7.40;5.25;;;11.90;99.90;;;;;;5094710;28;20127;-67
2023/01/04 06:16:44;;;;;;;10.07;5.10;;;9.00;99.90;;;;;;5094639;28;20131;-68
2023/01/04 06:19:10;;;;;;;8.35;5.20;;;9.60;99.90;;;;;;5093565;28;20051;-68
2023/01/04 06:21:36;;;;;;;8.85;5.40;;;12.50;99.90;;;;;;5094541;28;20036;-68
2023/01/04 06:24:01;;;;;;;12.10;5.07;;;8.60;99.90;;;;;;5094506;28;20047;-67
2023/01/04 06:26:27;;;;;;;11.95;4.65;;;11.80;99.90;;;;;;5093180;28;20055;-66
2023/01/04 06:28:53;;;;;;;9.00;4.53;;;12.30;99.90;;;;;;5094263;28;20466;-67
2023/01/04 06:31:18;;;;;;;16.42;5.25;;;10.50;99.90;;;;;;5094037;28;20056;-66
2023/01/04 06:33:44;;;;;;;12.00;4.68;;;12.40;99.90;;;;;;5094307;28;20139;-67
2023/01/04 06:36:10;;;;;;;11.20;3.13;;;10.40;99.90;;;;;;5093255;28;20048;-68
2023/01/04 06:38:35;;;;;;;9.73;3.13;;;8.50;99.90;;;;;;5093777;28;20529;-66
2023/01/04 06:41:01;;;;;;;10.18;3.47;;;9.50;99.90;;;;;;5094477;28;20067;-67
2023/01/04 06:43:27;;;;;;;15.15;2.83;;;9.10;99.90;;;;;;5093062;28;20048;-67
2023/01/04 06:45:53;;;;;;;13.25;3.05;;;12.10;99.90;;;;;;5093791;28;20091;-66
2023/01/04 06:48:19;;;;;;;9.07;3.20;;;9.00;99.90;;;;;;5093991;28;20434;-66
2023/01/04 06:50:44;;;;;;;14.98;3.75;;;9.00;99.90;;;;;;5094167;28;20040;-67
2023/01/04 06:53:10;;;;;;;12.05;3.70;;;12.40;99.90;;;;;;5094283;28;20531;-67
2023/01/04 06:55:36;;;;;;;14.68;4.13;;;9.90;99.90;;;;;;5092989;28;20079;-68
2023/01/04 06:58:01;;;;;;;17.38;4.13;;;12.20;99.90;;;;;;5075365;28;20047;-67
2023/01/04 07:00:27;;;;;;;20.45;4.55;;;10.10;99.90;;;;;;5092318;28;20076;-66
2023/01/04 07:02:53;;;;;;;17.23;4.53;;;8.50;99.90;;;;;;5092405;28;20059;-67
2023/01/04 07:05:18;;;;;;;25.35;4.53;;;12.90;99.90;;;;;;5093023;28;20463;-68
2023/01/04 07:07:44;;;;;;;23.40;4.82;;;12.60;99.90;;;;;;5092722;28;20048;-67
2023/01/04 07:10:10;;;;;;;28.58;6.00;;;9.30;99.90;;;;;;5092873;28;20044;-67
2023/01/04 07:12:37;;;;;;;20.70;5.43;;;8.10;99.90;;;;;;5093016;28;20100;-67
2023/01/04 07:15:03;;;;;;;19.80;4.40;;;13.00;99.90;;;;;;5090517;28;20052;-68
2023/01/04 07:17:29;;;;;;;22.95;4.45;;;12.50;99.90;;;;;;5092463;28;20051;-68
2023/01/04 07:19:55;;;;;;;17.92;4.82;;;12.40;99.90;;;;;;5091503;28;20044;-67
2023/01/04 07:22:20;;;;;;;27.30;5.03;;;12.50;99.90;;;;;;5092317;28;20106;-69
2023/01/04 07:24:46;;;;;;;19.27;4.93;;;8.20;99.90;;;;;;5092742;28;20059;-68
2023/01/04 07:27:12;;;;;;;23.05;4.65;;;10.00;99.90;;;;;;5092666;28;20066;-67
2023/01/04 07:29:38;;;;;;;19.77;4.90;;;10.00;99.90;;;;;;5091533;28;20129;-67
2023/01/04 07:32:04;;;;;;;18.80;4.43;;;12.60;99.90;;;;;;5092310;28;20075;-67
2023/01/04 07:34:30;;;;;;;26.73;5.70;;;12.20;99.90;;;;;;5092455;28;20040;-67
2023/01/04 07:36:56;;;;;;;24.77;5.70;;;12.30;99.90;;;;;;5092013;28;20105;-68
2023/01/04 07:39:22;;;;;;;22.83;4.78;;;10.70;99.90;;;;;;5092410;28;20079;-68
2023/01/04 07:41:49;;;;;;;20.27;4.40;;;12.70;99.90;;;;;;5091352;28;20481;-67
2023/01/04 07:44:16;;;;;;;22.15;4.40;;;12.30;99.90;;;;;;5091695;28;20826;-69
2023/01/04 07:46:42;;;;;;;19.75;4.15;;;12.70;99.90;;;;;;5092277;28;20052;-67
2023/01/04 07:49:12;;;;;;;19.85;3.78;;;9.20;99.90;;;;;;5091698;28;20448;-66
2023/01/04 07:51:38;;;;;;;23.38;4.63;;;12.00;99.90;;;;;;5090654;28;20088;-68
2023/01/04 07:54:04;;;;;;;22.08;4.50;;;7.80;99.90;;;;;;5092286;28;20079;-67
2023/01/04 07:56:30;;;;;;;21.90;4.55;;;8.90;99.90;;;;;;5090732;28;20169;-67
2023/01/04 07:58:57;;;;;;;22.80;4.32;;;9.70;99.90;;;;;;5090280;28;20065;-66
2023/01/04 08:01:24;;;;;;;17.90;4.30;;;8.80;99.90;;;;;;5090807;28;20483;-66
2023/01/04 08:03:51;;;;;;;21.70;6.18;;;12.50;99.90;;;;;;5091003;28;20381;-67
2023/01/04 08:06:19;;;;;;;19.23;4.28;;;12.40;99.90;;;;;;5091673;28;20059;-68
2023/01/04 08:08:44;;;;;;;24.90;5.15;;;8.80;99.90;;;;;;5090597;28;20074;-68
2023/01/04 08:11:13;;;;;;;21.92;5.57;;;12.20;99.90;;;;;;5090966;28;20046;-67
2023/01/04 08:13:39;;;;;;;13.23;3.47;;;12.10;99.90;;;;;;5090239;28;20056;-67
2023/01/04 08:16:06;;;;;;;20.10;3.55;;;12.30;99.90;;;;;;5091733;28;20488;-68
2023/01/04 08:18:32;;;;;;;17.00;3.45;;;12.40;99.90;;;;;;5092309;28;20048;-68
2023/01/04 08:21:06;;;;;;;12.65;3.58;;;11.30;99.90;;;;;;5092233;28;20126;-68
2023/01/04 08:23:34;;;;;;;15.07;3.30;;;11.40;99.90;;;;;;5092264;28;20051;-68
2023/01/04 08:26:07;;;;;;;12.35;3.58;;;11.70;99.90;;;;;;5090495;28;20123;-68
2023/01/04 08:28:34;;;;;;;11.20;3.03;;;10.20;99.90;;;;;;5091592;28;20117;-67
2023/01/04 08:31:03;;;;;;;;;;;11.20;99.90;;;;;;5092570;28;20511;-67
2023/01/04 08:33:29;;;;;;;12.63;3.53;;;9.20;99.90;;;;;;5092180;28;19920;-67
2023/01/04 08:36:08;;;;;;;10.93;2.88;;;12.50;99.90;;;;;;5091074;28;20059;-67
2023/01/04 08:38:34;;;;;;;16.48;4.15;;;10.90;99.90;;;;;;5092205;28;20044;-67
2023/01/04 08:40:59;;;;;;;14.80;3.95;;;12.30;99.90;;;;;;5092187;28;20071;-66
2023/01/04 08:43:25;;;;;;;13.68;3.60;;;10.20;99.90;;;;;;5090715;28;20087;-67
2023/01/04 08:45:51;;;;;;;16.40;3.78;;;9.20;99.90;;;;;;5092126;28;20051;-67
2023/01/04 08:48:16;;;;;;;19.83;4.32;;;9.80;99.90;;;;;;5092316;28;20488;-67
2023/01/04 08:50:42;;;;;;;12.57;3.95;;;11.00;99.90;;;;;;5092180;28;20135;-68
2023/01/04 08:53:08;;;;;;;17.75;4.43;;;12.00;99.90;;;;;;5074176;28;20048;-67
2023/01/04 08:55:33;;;;;;;25.95;4.07;;;11.40;99.90;;;;;;5090907;28;20503;-68
2023/01/04 08:57:59;;;;;;;19.15;4.80;;;12.60;99.90;;;;;;5091719;28;20046;-67
2023/01/04 09:00:26;;;;;;;20.00;4.68;;;9.20;99.90;;;;;;5092116;28;20439;-67
2023/01/04 09:02:52;;;;;;;25.88;4.35;;;12.60;99.90;;;;;;5094918;28;20048;-68
2023/01/04 09:05:18;;;;;;;21.85;5.18;;;12.80;99.90;;;;;;5095955;28;20051;-67
2023/01/04 09:07:43;;;;;;;23.75;4.60;;;12.20;99.90;;;;;;5095951;28;20121;-68
2023/01/04 09:10:10;;;;;;;30.38;5.28;;;12.50;99.90;;;;;;5094442;28;20476;-66
2023/01/04 09:12:35;;;;;;;30.17;5.00;;;9.00;99.90;;;;;;5095489;28;20510;-67
2023/01/04 09:15:01;;;;;;;38.15;5.68;;;12.20;99.90;;;;;;5095735;28;20044;-67
2023/01/04 09:17:27;;;;;;;;;;;9.40;99.90;;;;;;5095042;28;20062;-67
2023/01/04 09:19:53;;;;;;;39.95;6.07;;;9.90;99.90;;;;;;5095988;28;19924;-66
2023/01/04 09:22:18;;;;;;;32.63;6.30;;;10.90;99.90;;;;;;5094595;28;20109;-67
2023/01/04 09:24:44;;;;;;;40.17;6.50;;;9.40;99.90;;;;;;5095551;28;20048;-67
2023/01/04 09:27:10;;;;;;;38.80;6.72;;;9.70;99.90;;;;;;5093917;28;20126;-67
2023/01/04 09:29:35;;;;;;;25.63;6.13;;;9.90;99.90;;;;;;5094984;28;20060;-67
2023/01/04 09:32:01;;;;;;;33.05;6.60;;;9.70;99.90;;;;;;5095418;28;20404;-66
2023/01/04 09:34:27;;;;;;;37.50;6.15;;;12.50;99.90;;;;;;5094406;28;20067;-66
2023/01/04 09:36:52;;;;;;;43.90;6.97;;;9.20;99.90;;;;;;5095380;28;20055;-67
2023/01/04 09:39:18;;;;;;;45.78;6.43;;;12.10;99.90;;;;;;5095270;28;20040;-67
2023/01/04 09:41:56;;;;;;;35.22;5.93;;;12.20;99.90;;;;;;5095065;28;20044;-67
2023/01/04 09:44:57;;;;;;;37.25;6.45;;;9.70;99.90;;;;;;5095343;28;20091;-68
2023/01/04 09:47:37;;;;;;;40.70;5.97;;;10.20;99.90;;;;;;5095224;28;20157;-67
2023/01/04 09:50:05;;;;;;;44.75;7.00;;;10.00;99.90;;;;;;5095113;28;20052;-68
2023/01/04 09:53:01;;;;;;;37.55;6.72;;;12.20;99.90;;;;;;5095015;28;20048;-67
2023/01/04 09:55:41;;;;;;;40.85;6.05;;;11.50;99.90;;;;;;5094728;28;20396;-65
2023/01/04 09:58:16;;;;;;;43.13;6.20;;;9.50;99.90;;;;;;5094925;28;20051;-68
2023/01/04 10:00:51;;;;;;;35.97;5.45;;;12.40;99.90;;;;;;5094862;28;20043;-67
2023/01/04 10:03:37;;;;;;;36.10;5.85;;;9.90;99.90;;;;;;5094749;28;20059;-68
2023/01/04 10:06:05;;;;;;;37.30;5.78;;;11.50;99.90;;;;;;5093739;28;20078;-68
2023/01/04 10:08:31;;;;;;;39.70;5.88;;;12.70;99.90;;;;;;5094670;28;20040;-66
2023/01/04 10:11:33;;;;;;;32.88;5.38;;;10.00;99.90;;;;;;5094412;28;20051;-68
2023/01/04 10:14:20;;;;;;;37.55;5.53;;;10.60;99.90;;;;;;5093783;28;20048;-67
2023/01/04 10:17:46;;;;;;;31.02;5.18;;;10.40;99.90;;;;;;5094645;28;20052;-67
2023/01/04 10:20:40;;;;;;;41.83;5.38;;;12.60;99.90;;;;;;5070550;28;20095;-66
2023/01/04 10:23:27;;;;;;;33.33;5.88;;;10.10;99.90;;;;;;5086477;28;20091;-66
2023/01/04 10:25:57;;;;;;;31.05;4.95;;;12.60;99.90;;;;;;5094479;28;20170;-68
2023/01/04 10:28:36;;;;;;;34.35;4.68;;;9.70;99.90;;;;;;5092911;28;20485;-66
2023/01/04 10:31:14;;;;;;;33.38;5.32;;;11.50;99.90;;;;;;5094360;28;20055;-67
2023/01/04 10:33:48;;;;;;;34.03;4.70;;;12.80;99.90;;;;;;5094262;28;20048;-66
2023/01/04 10:36:19;;;;;;;39.60;5.43;;;11.40;99.90;;;;;;5093900;28;20508;-67
2023/01/04 10:38:46;;;;;;;45.80;5.35;;;11.80;99.90;;;;;;5094062;28;20048;-67
2023/01/04 10:41:20;;;;;;;35.53;4.80;;;12.20;99.90;;;;;;5093071;28;20054;-67
2023/01/04 10:44:17;;;;;;;29.88;6.15;;;13.10;99.90;;;;;;5093937;28;20515;-66
2023/01/04 10:46:58;;;;;;;34.75;4.88;;;11.00;99.90;;;;;;5094080;28;20059;-69
2023/01/04 10:49:44;;;;;;;34.80;6.10;;;10.30;99.90;;;;;;5093904;28;20051;-66
2023/01/04 10:52:19;;;;;;;29.70;5.00;;;12.60;99.90;;;;;;5093614;28;20047;-67
2023/01/04 10:55:07;;;;;;;25.27;4.78;;;13.00;99.90;;;;;;5093959;28;20201;-67
2023/01/04 10:57:42;;;;;;;28.98;5.47;;;12.20;99.90;;;;;;5091949;28;20060;-69
2023/01/04 11:00:33;;;;;;;38.75;5.22;;;11.40;99.90;;;;;;5093686;28;20047;-67
2023/01/04 11:03:10;;;;;;;42.38;5.70;;;12.30;99.90;;;;;;5093492;28;20606;-68
2023/01/04 11:05:41;;;;;;;37.15;6.70;;;12.20;99.90;;;;;;5093663;28;20048;-66
2023/01/04 11:08:25;;;;;;;33.00;5.47;;;12.50;99.90;;;;;;5091954;28;20055;-66
2023/01/04 11:10:58;;;;;;;35.28;5.32;;;11.90;99.90;;;;;;5097672;28;20100;-65
2023/01/04 11:13:24;;;;;;;30.00;5.43;;;10.90;99.90;;;;;;5111705;28;20491;-65
2023/01/04 11:15:51;;;;;;;29.98;4.85;;;10.90;99.90;;;;;;5095296;28;20062;-65
2023/01/04 11:18:17;;;;;;;40.10;5.88;;;11.80;99.90;;;;;;5113681;28;20044;-65
2023/01/04 11:20:43;;;;;;;30.85;4.72;;;12.20;99.90;;;;;;5113647;28;20051;-66
2023/01/04 11:23:14;;;;;;;32.20;5.20;;;11.20;99.90;;;;;;5113293;27;20051;-66
2023/01/04 11:25:47;;;;;;;31.20;4.32;;;12.20;99.90;;;;;;5112478;28;20488;-65
2023/01/04 11:28:42;;;;;;;27.27;5.07;;;11.10;99.90;;;;;;5113290;28;20055;-65
2023/01/04 11:31:08;;;;;;;34.05;5.13;;;11.90;99.90;;;;;;5112901;28;20056;-67
2023/01/04 11:33:57;;;;;;;27.67;3.92;;;11.90;99.90;;;;;;5112433;28;20088;-68
2023/01/04 11:36:37;;;;;;;30.08;5.25;;;11.20;99.90;;;;;;5113186;28;20297;-68
2023/01/04 11:39:25;;;;;;;25.45;4.82;;;12.10;99.90;;;;;;5113300;28;20043;-66
2023/01/04 11:41:54;;;;;;;;;;;12.00;99.90;;;;;;5111983;28;20185;-67
2023/01/04 11:44:19;;;;;;;35.47;5.07;;;12.00;99.90;;;;;;5113236;28;20010;-68
2023/01/04 11:46:45;;;;;;;28.95;4.93;;;12.10;99.90;;;;;;5112241;28;20395;-66
2023/01/04 11:49:20;;;;;;;35.95;5.50;;;11.50;99.90;;;;;;5111803;28;20043;-65
2023/01/04 11:51:46;;;;;;;36.83;6.88;;;12.10;99.90;;;;;;5094867;28;20134;-66
2023/01/04 11:54:14;;;;;;;39.70;5.30;;;12.10;99.90;;;;;;5111814;28;20150;-66
2023/01/04 11:56:56;;;;;;;42.22;6.10;;;12.20;99.90;;;;;;5111931;28;20052;-66
2023/01/04 11:59:21;;;;;;;32.95;5.47;;;12.50;99.90;;;;;;5095001;28;20487;-66
2023/01/04 12:01:50;;;;;;;26.80;4.93;;;12.30;99.90;;;;;;5111726;28;20135;-67
2023/01/04 12:04:20;;;;;;;32.60;5.22;;;12.40;99.90;;;;;;5112864;28;20043;-69
2023/01/04 12:06:51;;;;;;;32.30;5.38;;;12.30;99.90;;;;;;5112636;28;20147;-67
2023/01/04 12:09:18;;;;;;;26.75;4.57;;;11.90;99.90;;;;;;5112695;28;20043;-67
2023/01/04 12:11:55;;;;;;;29.48;5.10;;;12.20;99.90;;;;;;5112485;28;20491;-68
2023/01/04 12:14:25;;;;;;;27.60;4.18;;;12.00;99.90;;;;;;5112883;28;20043;-66
2023/01/04 12:17:02;;;;;;;22.05;3.60;;;12.20;99.90;;;;;;5112721;28;20087;-67
2023/01/04 12:19:28;;;;;;;26.08;4.60;;;12.30;99.90;;;;;;5112313;28;20043;-65
2023/01/04 12:22:00;;;;;;;25.63;4.78;;;12.10;99.90;;;;;;5112686;28;20708;-66
2023/01/04 12:24:30;;;;;;;28.08;5.30;;;12.50;99.90;;;;;;5111605;28;20062;-66
2023/01/04 12:26:56;;;;;;;27.35;4.10;;;12.40;99.90;;;;;;5112644;28;20036;-66
2023/01/04 12:29:24;;;;;;;24.77;4.30;;;12.20;99.90;;;;;;5112359;28;20408;-67
2023/01/04 12:32:13;;;;;;;22.92;4.13;;;11.90;99.90;;;;;;5112461;28;20052;-68
2023/01/04 12:34:45;;;;;;;22.65;3.90;;;12.30;99.90;;;;;;5112255;28;20054;-66
2023/01/04 12:37:44;;;;;;;18.42;3.58;;;11.90;99.90;;;;;;5111970;28;20487;-67
2023/01/04 12:40:44;;;;;;;15.30;2.90;;;12.00;99.90;;;;;;5112521;28;20053;-67
2023/01/04 12:43:23;;;;;;;22.50;3.63;;;12.30;99.90;;;;;;5112364;28;20085;-66
2023/01/04 12:49:27;;;;;;;23.67;4.57;;;11.80;99.90;;;;;;5111987;28;20100;-65
2023/01/04 12:52:19;;;;;;;27.23;3.88;;;12.10;99.90;;;;;;5112000;28;20503;-67
2023/01/04 12:54:53;;;;;;;19.45;3.63;;;12.20;99.90;;;;;;5095710;28;20082;-65
2023/01/04 12:57:38;;;;;;;19.55;4.22;;;12.10;99.90;;;;;;5112165;28;20042;-66
2023/01/04 13:00:11;;;;;;;23.58;3.45;;;12.30;99.90;;;;;;5094220;28;20395;-66
2023/01/04 13:02:50;;;;;;;22.95;3.70;;;11.90;99.90;;;;;;5110629;28;20087;-72
2023/01/04 13:05:16;;;;;;;18.55;3.35;;;12.10;99.90;;;;;;5112245;28;20083;-67
2023/01/04 13:07:51;;;;;;;18.85;3.83;;;12.10;99.90;;;;;;5112090;28;20089;-66
2023/01/04 13:10:43;;;;;;;23.98;4.72;;;12.00;99.90;;;;;;5111997;28;20048;-67
2023/01/04 13:13:44;;;;;;;19.25;3.38;;;12.10;99.90;;;;;;5112172;28;20388;-66
2023/01/04 13:16:34;;;;;;;21.85;4.15;;;12.10;99.90;;;;;;5112129;28;20126;-68
2023/01/04 13:19:02;;;;;;;21.15;3.28;;;12.10;99.90;;;;;;5111544;28;20570;-69
2023/01/04 13:21:40;;;;;;;22.33;3.92;;;12.10;99.90;;;;;;5112068;28;20048;-66
2023/01/04 13:24:25;;;;;;;17.55;3.97;;;12.20;99.90;;;;;;5112056;28;20051;-68
2023/01/04 13:26:52;;;;;;;21.10;4.13;;;12.10;99.90;;;;;;5112010;28;20059;-67
2023/01/04 13:29:28;;;;;;;29.95;5.22;;;12.00;99.90;;;;;;5111820;28;20110;-66
2023/01/04 13:31:58;;;;;;;26.80;5.13;;;12.00;99.90;;;;;;5111766;28;20048;-66
2023/01/04 13:34:26;;;;;;;14.02;4.15;;;12.30;99.90;;;;;;5110847;28;20035;-66
2023/01/04 13:36:58;;;;;;;32.22;4.90;;;12.10;99.90;;;;;;5111875;28;20043;-66
2023/01/04 13:39:24;;;;;;;26.17;4.68;;;11.90;99.90;;;;;;5111850;28;20043;-67
2023/01/04 13:41:51;;;;;;;27.80;5.13;;;11.60;99.90;;;;;;5110780;28;20039;-67
2023/01/04 13:44:30;;;;;;;30.27;5.07;;;12.00;99.90;;;;;;5111861;28;20043;-66
2023/01/04 13:46:56;;;;;;;30.75;5.15;;;12.10;99.90;;;;;;5111235;28;20503;-67
2023/01/04 13:49:23;;;;;;;37.83;6.38;;;12.00;99.90;;;;;;5114842;28;20047;-68
2023/01/04 13:51:49;;;;;;;34.22;9.88;;;12.10;99.90;;;;;;5115455;28;20096;-68
2023/01/04 13:54:22;;;;;;;29.77;5.53;;;11.90;99.90;;;;;;5115405;27;20155;-66
2023/01/04 13:56:49;;;;;;;50.72;6.63;;;12.00;99.90;;;;;;5115314;28;20039;-68